sensor_id;sensor_type;location;lat;lon;timestamp;pressure;altitude;pressure_sealevel;temperature;humidity
8047;BME280;74083;42.516;23.358;2024-02-14T00:01:51;87964.59;;;6.09;66.59
8047;BME280;74083;42.516;23.358;2024-02-14T00:04:37;87970.41;;;6.09;66.28
8047;BME280;74083;42.516;23.358;2024-02-14T00:07:25;87973.78;;;6.08;66.69
8047;BME280;74083;42.516;23.358;2024-02-14T00:10:11;87974.69;;;6.07;66.31
8047;BME280;74083;42.516;23.358;2024-02-14T00:12:56;87977.19;;;6.07;66.78
8047;BME280;74083;42.516;23.358;2024-02-14T00:15:43;87974.69;;;6.07;66.60
8047;BME280;74083;42.516;23.358;2024-02-14T00:18:29;87980.47;;;6.08;66.59
8047;BME280;74083;42.516;23.358;2024-02-14T00:21:15;87982.28;;;6.06;66.35
8047;BME280;74083;42.516;23.358;2024-02-14T00:24:02;87985.69;;;6.05;66.70
8047;BME280;74083;42.516;23.358;2024-02-14T00:26:49;87988.19;;;6.05;66.72
8047;BME280;74083;42.516;23.358;2024-02-14T00:29:34;87981.59;;;6.04;66.67
8047;BME280;74083;42.516;23.358;2024-02-14T00:32:20;87988.28;;;6.03;66.69
8047;BME280;74083;42.516;23.358;2024-02-14T00:35:06;87990.78;;;6.03;66.64
8047;BME280;74083;42.516;23.358;2024-02-14T00:37:51;87979.19;;;6.02;66.50
8047;BME280;74083;42.516;23.358;2024-02-14T00:40:39;87984.19;;;6.02;66.46
8047;BME280;74083;42.516;23.358;2024-02-14T00:43:24;87980.88;;;6.02;66.48
8047;BME280;74083;42.516;23.358;2024-02-14T00:46:15;87981.69;;;6.02;66.25
8047;BME280;74083;42.516;23.358;2024-02-14T00:49:01;87979.97;;;6.03;66.49
8047;BME280;74083;42.516;23.358;2024-02-14T00:51:47;87986.78;;;6.01;66.52
8047;BME280;74083;42.516;23.358;2024-02-14T00:54:32;87985.88;;;6.02;66.05
8047;BME280;74083;42.516;23.358;2024-02-14T00:57:19;87989.19;;;6.02;66.51
8047;BME280;74083;42.516;23.358;2024-02-14T01:00:06;87989.28;;;6.01;66.52
8047;BME280;74083;42.516;23.358;2024-02-14T01:02:53;87986.78;;;6.01;66.44
8047;BME280;74083;42.516;23.358;2024-02-14T01:05:40;87993.47;;;6.00;66.27
8047;BME280;74083;42.516;23.358;2024-02-14T01:08:25;87985.09;;;6.01;66.32
8047;BME280;74083;42.516;23.358;2024-02-14T01:11:11;87988.47;;;6.00;66.40
8047;BME280;74083;42.516;23.358;2024-02-14T01:13:57;87986.88;;;5.99;66.71
8047;BME280;74083;42.516;23.358;2024-02-14T01:16:43;87982.69;;;6.00;66.63
8047;BME280;74083;42.516;23.358;2024-02-14T01:19:29;87982.69;;;6.00;66.61
8047;BME280;74083;42.516;23.358;2024-02-14T01:22:15;87972.69;;;6.00;66.45
8047;BME280;74083;42.516;23.358;2024-02-14T01:25:02;87972.06;;;5.96;66.28
8047;BME280;74083;42.516;23.358;2024-02-14T01:27:49;87969.47;;;5.98;66.64
8047;BME280;74083;42.516;23.358;2024-02-14T01:30:38;87974.69;;;5.95;66.77
8047;BME280;74083;42.516;23.358;2024-02-14T01:33:23;87979.69;;;5.95;66.33
8047;BME280;74083;42.516;23.358;2024-02-14T01:36:09;87979.69;;;5.95;66.77
8047;BME280;74083;42.516;23.358;2024-02-14T01:38:54;87971.28;;;5.96;66.44
8047;BME280;74083;42.516;23.358;2024-02-14T01:41:45;87973.88;;;5.94;66.41
8047;BME280;74083;42.516;23.358;2024-02-14T01:44:32;87964.69;;;5.95;66.45
8047;BME280;74083;42.516;23.358;2024-02-14T01:47:19;87954.69;;;5.95;66.37
8047;BME280;74083;42.516;23.358;2024-02-14T01:50:06;87960.56;;;5.94;66.79
8047;BME280;74083;42.516;23.358;2024-02-14T01:52:53;87964.69;;;5.95;66.32
8047;BME280;74083;42.516;23.358;2024-02-14T01:55:39;87968.06;;;5.94;66.51
8047;BME280;74083;42.516;23.358;2024-02-14T01:58:25;87978.19;;;5.92;66.27
8047;BME280;74083;42.516;23.358;2024-02-14T02:01:12;87978.25;;;5.91;66.58
8047;BME280;74083;42.516;23.358;2024-02-14T02:03:59;87969.88;;;5.92;66.52
8047;BME280;74083;42.516;23.358;2024-02-14T02:06:45;87969.88;;;5.92;66.50
8047;BME280;74083;42.516;23.358;2024-02-14T02:09:31;87979.06;;;5.91;66.27
8047;BME280;74083;42.516;23.358;2024-02-14T02:12:18;87988.25;;;5.91;66.71
8047;BME280;74083;42.516;23.358;2024-02-14T02:15:05;87989.19;;;5.90;66.26
8047;BME280;74083;42.516;23.358;2024-02-14T02:17:51;87990.06;;;5.89;66.16
8047;BME280;74083;42.516;23.358;2024-02-14T02:20:38;87993.47;;;5.88;66.21
8047;BME280;74083;42.516;23.358;2024-02-14T02:23:28;88003.47;;;5.88;66.46
8047;BME280;74083;42.516;23.358;2024-02-14T02:26:14;87994.38;;;5.87;66.33
8047;BME280;74083;42.516;23.358;2024-02-14T02:28:59;88004.44;;;5.85;66.80
8047;BME280;74083;42.516;23.358;2024-02-14T02:31:46;88010.25;;;5.86;66.79
8047;BME280;74083;42.516;23.358;2024-02-14T02:34:32;88013.56;;;5.86;66.61
8047;BME280;74083;42.516;23.358;2024-02-14T02:37:18;88012.75;;;5.86;66.39
8047;BME280;74083;42.516;23.358;2024-02-14T02:40:06;88011.94;;;5.85;66.43
8047;BME280;74083;42.516;23.358;2024-02-14T02:42:54;88014.44;;;5.85;66.72
8047;BME280;74083;42.516;23.358;2024-02-14T02:45:39;88022.03;;;5.84;66.32
8047;BME280;74083;42.516;23.358;2024-02-14T02:48:26;88027.75;;;5.86;66.18
8047;BME280;74083;42.516;23.358;2024-02-14T02:51:11;88028.63;;;5.85;66.51
8047;BME280;74083;42.516;23.358;2024-02-14T02:53:57;88027.81;;;5.84;66.50
8047;BME280;74083;42.516;23.358;2024-02-14T02:56:44;88019.53;;;5.84;66.36
8047;BME280;74083;42.516;23.358;2024-02-14T02:59:30;88027.81;;;5.84;66.75
8047;BME280;74083;42.516;23.358;2024-02-14T03:02:16;88036.22;;;5.83;66.56
8047;BME280;74083;42.516;23.358;2024-02-14T03:05:03;88034.72;;;5.81;66.00
8047;BME280;74083;42.516;23.358;2024-02-14T03:07:50;88039.00;;;5.79;66.90
8047;BME280;74083;42.516;23.358;2024-02-14T03:10:37;88036.41;;;5.80;66.48
8047;BME280;74083;42.516;23.358;2024-02-14T03:13:24;88040.59;;;5.80;66.90
8047;BME280;74083;42.516;23.358;2024-02-14T03:16:10;88037.41;;;5.78;66.29
8047;BME280;74083;42.516;23.358;2024-02-14T03:18:55;88049.91;;;5.78;66.55
8047;BME280;74083;42.516;23.358;2024-02-14T03:21:42;88041.59;;;5.77;66.71
8047;BME280;74083;42.516;23.358;2024-02-14T03:24:30;88054.09;;;5.77;66.91
8047;BME280;74083;42.516;23.358;2024-02-14T03:27:19;88060.78;;;5.77;66.84
8047;BME280;74083;42.516;23.358;2024-02-14T03:30:10;88055.78;;;5.77;66.85
8047;BME280;74083;42.516;23.358;2024-02-14T03:32:57;88067.41;;;5.78;66.22
8047;BME280;74083;42.516;23.358;2024-02-14T03:35:42;88071.66;;;5.76;66.12
8047;BME280;74083;42.516;23.358;2024-02-14T03:38:27;88074.16;;;5.76;66.48
8047;BME280;74083;42.516;23.358;2024-02-14T03:41:13;88079.09;;;5.77;66.65
8047;BME280;74083;42.516;23.358;2024-02-14T03:43:59;88083.28;;;5.77;66.71
8047;BME280;74083;42.516;23.358;2024-02-14T03:46:47;88083.38;;;5.75;66.90
8047;BME280;74083;42.516;23.358;2024-02-14T03:49:33;88089.91;;;5.78;66.56
8047;BME280;74083;42.516;23.358;2024-02-14T03:52:19;88090.78;;;5.77;66.58
8047;BME280;74083;42.516;23.358;2024-02-14T03:55:07;88093.28;;;5.77;66.41
8047;BME280;74083;42.516;23.358;2024-02-14T03:57:53;88091.66;;;5.76;66.68
8047;BME280;74083;42.516;23.358;2024-02-14T04:00:39;88096.66;;;5.76;66.72
8047;BME280;74083;42.516;23.358;2024-02-14T04:03:26;88098.47;;;5.74;66.75
8047;BME280;74083;42.516;23.358;2024-02-14T04:06:13;88100.09;;;5.75;66.65
8047;BME280;74083;42.516;23.358;2024-02-14T04:08:59;88105.06;;;5.75;66.50
8047;BME280;74083;42.516;23.358;2024-02-14T04:11:45;88108.38;;;5.75;66.36
8047;BME280;74083;42.516;23.358;2024-02-14T04:14:32;88109.16;;;5.76;66.92
8047;BME280;74083;42.516;23.358;2024-02-14T04:17:17;88110.97;;;5.74;66.57
8047;BME280;74083;42.516;23.358;2024-02-14T04:20:06;88106.84;;;5.73;66.76
8047;BME280;74083;42.516;23.358;2024-02-14T04:22:51;88107.75;;;5.72;66.70
8047;BME280;74083;42.516;23.358;2024-02-14T04:25:37;88096.97;;;5.71;66.69
8047;BME280;74083;42.516;23.358;2024-02-14T04:28:23;88098.56;;;5.72;66.51
8047;BME280;74083;42.516;23.358;2024-02-14T04:31:09;88106.97;;;5.71;66.68
8047;BME280;74083;42.516;23.358;2024-02-14T04:33:55;88107.03;;;5.70;66.90
8047;BME280;74083;42.516;23.358;2024-02-14T04:36:41;88108.75;;;5.69;66.83
8047;BME280;74083;42.516;23.358;2024-02-14T04:39:27;88119.53;;;5.70;66.84
8047;BME280;74083;42.516;23.358;2024-02-14T04:42:13;88124.44;;;5.71;66.53
8047;BME280;74083;42.516;23.358;2024-02-14T04:44:58;88123.66;;;5.71;66.66
8047;BME280;74083;42.516;23.358;2024-02-14T04:47:43;88138.63;;;5.71;67.00
8047;BME280;74083;42.516;23.358;2024-02-14T04:50:29;88130.34;;;5.70;66.98
8047;BME280;74083;42.516;23.358;2024-02-14T04:53:17;88135.44;;;5.69;67.01
8047;BME280;74083;42.516;23.358;2024-02-14T04:56:04;88127.84;;;5.70;66.73
8047;BME280;74083;42.516;23.358;2024-02-14T04:58:50;88135.25;;;5.72;66.53
8047;BME280;74083;42.516;23.358;2024-02-14T05:01:36;88126.16;;;5.71;66.84
8047;BME280;74083;42.516;23.358;2024-02-14T05:04:22;88132.94;;;5.69;66.54
8047;BME280;74083;42.516;23.358;2024-02-14T05:07:07;88134.72;;;5.66;66.91
8047;BME280;74083;42.516;23.358;2024-02-14T05:09:54;88140.50;;;5.67;66.90
8047;BME280;74083;42.516;23.358;2024-02-14T05:12:40;88151.31;;;5.68;66.81
8047;BME280;74083;42.516;23.358;2024-02-14T05:15:26;88149.69;;;5.66;66.89
8047;BME280;74083;42.516;23.358;2024-02-14T05:18:12;88153.94;;;5.66;66.61
8047;BME280;74083;42.516;23.358;2024-02-14T05:20:58;88160.63;;;5.65;66.79
8047;BME280;74083;42.516;23.358;2024-02-14T05:23:43;88160.63;;;5.65;66.48
8047;BME280;74083;42.516;23.358;2024-02-14T05:26:31;88171.50;;;5.64;66.88
8047;BME280;74083;42.516;23.358;2024-02-14T05:29:16;88177.31;;;5.65;66.80
8047;BME280;74083;42.516;23.358;2024-02-14T05:32:05;88182.41;;;5.63;67.11
8047;BME280;74083;42.516;23.358;2024-02-14T05:34:53;88179.91;;;5.63;67.38
8047;BME280;74083;42.516;23.358;2024-02-14T05:37:39;88184.91;;;5.63;66.92
8047;BME280;74083;42.516;23.358;2024-02-14T05:40:24;88186.66;;;5.61;66.91
8047;BME280;74083;42.516;23.358;2024-02-14T05:43:11;88188.28;;;5.62;66.74
8047;BME280;74083;42.516;23.358;2024-02-14T05:45:57;88192.47;;;5.62;66.94
8047;BME280;74083;42.516;23.358;2024-02-14T05:48:43;88196.66;;;5.61;67.02
8047;BME280;74083;42.516;23.358;2024-02-14T05:51:28;88193.34;;;5.61;66.95
8047;BME280;74083;42.516;23.358;2024-02-14T05:54:14;88197.56;;;5.60;67.16
8047;BME280;74083;42.516;23.358;2024-02-14T05:56:59;88205.06;;;5.60;67.25
8047;BME280;74083;42.516;23.358;2024-02-14T05:59:47;88208.34;;;5.61;66.87
8047;BME280;74083;42.516;23.358;2024-02-14T06:02:33;88202.66;;;5.59;66.82
8047;BME280;74083;42.516;23.358;2024-02-14T06:05:18;88211.75;;;5.60;67.12
8047;BME280;74083;42.516;23.358;2024-02-14T06:08:04;88220.94;;;5.59;66.90
8047;BME280;74083;42.516;23.358;2024-02-14T06:10:50;88225.13;;;5.59;66.93
8047;BME280;74083;42.516;23.358;2024-02-14T06:13:36;88232.63;;;5.59;66.82
8047;BME280;74083;42.516;23.358;2024-02-14T06:16:23;88233.44;;;5.59;67.02
8047;BME280;74083;42.516;23.358;2024-02-14T06:19:09;88230.13;;;5.59;66.96
8047;BME280;74083;42.516;23.358;2024-02-14T06:21:55;88231.81;;;5.58;66.96
8047;BME280;74083;42.516;23.358;2024-02-14T06:24:41;88233.63;;;5.56;67.18
8047;BME280;74083;42.516;23.358;2024-02-14T06:27:26;88235.25;;;5.57;67.20
8047;BME280;74083;42.516;23.358;2024-02-14T06:30:12;88232.75;;;5.57;66.80
8047;BME280;74083;42.516;23.358;2024-02-14T06:32:59;88240.25;;;5.57;66.98
8047;BME280;74083;42.516;23.358;2024-02-14T06:35:47;88241.81;;;5.58;66.76
8047;BME280;74083;42.516;23.358;2024-02-14T06:38:32;88244.44;;;5.57;67.06
8047;BME280;74083;42.516;23.358;2024-02-14T06:41:18;88252.81;;;5.56;66.89
8047;BME280;74083;42.516;23.358;2024-02-14T06:44:04;88260.22;;;5.57;66.98
8047;BME280;74083;42.516;23.358;2024-02-14T06:46:50;88256.09;;;5.56;66.84
8047;BME280;74083;42.516;23.358;2024-02-14T06:49:37;88258.59;;;5.56;67.00
8047;BME280;74083;42.516;23.358;2024-02-14T06:52:23;88258.59;;;5.56;67.21
8047;BME280;74083;42.516;23.358;2024-02-14T06:55:08;88262.72;;;5.57;66.98
8047;BME280;74083;42.516;23.358;2024-02-14T06:57:54;88262.81;;;5.56;67.16
8047;BME280;74083;42.516;23.358;2024-02-14T07:00:39;88268.78;;;5.53;67.05
8047;BME280;74083;42.516;23.358;2024-02-14T07:03:24;88270.47;;;5.53;66.94
8047;BME280;74083;42.516;23.358;2024-02-14T07:06:11;88276.28;;;5.53;67.19
8047;BME280;74083;42.516;23.358;2024-02-14T07:08:57;88281.28;;;5.53;66.80
8047;BME280;74083;42.516;23.358;2024-02-14T07:11:42;88279.66;;;5.52;67.07
8047;BME280;74083;42.516;23.358;2024-02-14T07:14:29;88283.78;;;5.53;67.23
8047;BME280;74083;42.516;23.358;2024-02-14T07:17:15;88279.66;;;5.52;66.97
8047;BME280;74083;42.516;23.358;2024-02-14T07:20:01;88281.44;;;5.50;66.89
8047;BME280;74083;42.516;23.358;2024-02-14T07:22:48;88285.56;;;5.51;66.99
8047;BME280;74083;42.516;23.358;2024-02-14T07:25:37;88280.56;;;5.51;66.50
8047;BME280;74083;42.516;23.358;2024-02-14T07:28:23;88288.84;;;5.52;66.83
8047;BME280;74083;42.516;23.358;2024-02-14T07:31:08;88294.75;;;5.51;66.65
8047;BME280;74083;42.516;23.358;2024-02-14T07:33:54;88293.94;;;5.50;66.64
8047;BME280;74083;42.516;23.358;2024-02-14T07:36:39;88290.75;;;5.48;66.80
8047;BME280;74083;42.516;23.358;2024-02-14T07:39:31;88298.22;;;5.48;67.27
8047;BME280;74083;42.516;23.358;2024-02-14T07:42:18;88303.13;;;5.50;66.72
8047;BME280;74083;42.516;23.358;2024-02-14T07:45:05;88298.22;;;5.48;67.02
8047;BME280;74083;42.516;23.358;2024-02-14T07:47:50;88292.31;;;5.49;66.62
8047;BME280;74083;42.516;23.358;2024-02-14T07:50:36;88299.09;;;5.47;67.03
8047;BME280;74083;42.516;23.358;2024-02-14T07:53:22;88300.72;;;5.48;66.54
8047;BME280;74083;42.516;23.358;2024-02-14T07:56:08;88308.22;;;5.48;66.85
8047;BME280;74083;42.516;23.358;2024-02-14T07:58:54;88304.91;;;5.48;66.63
8047;BME280;74083;42.516;23.358;2024-02-14T08:01:40;88303.13;;;5.50;66.57
8047;BME280;74083;42.516;23.358;2024-02-14T08:04:27;88303.13;;;5.50;66.75
8047;BME280;74083;42.516;23.358;2024-02-14T08:07:12;88308.22;;;5.48;66.63
8047;BME280;74083;42.516;23.358;2024-02-14T08:09:58;88315.78;;;5.47;66.67
8047;BME280;74083;42.516;23.358;2024-02-14T08:12:45;88312.47;;;5.46;67.22
8047;BME280;74083;42.516;23.358;2024-02-14T08:15:31;88319.97;;;5.46;66.99
8047;BME280;74083;42.516;23.358;2024-02-14T08:18:17;88314.97;;;5.46;66.71
8047;BME280;74083;42.516;23.358;2024-02-14T08:21:02;88319.19;;;5.46;67.00
8047;BME280;74083;42.516;23.358;2024-02-14T08:23:48;88316.69;;;5.46;67.22
8047;BME280;74083;42.516;23.358;2024-02-14T08:26:35;88315.91;;;5.45;66.98
8047;BME280;74083;42.516;23.358;2024-02-14T08:29:22;88320.09;;;5.45;66.77
8047;BME280;74083;42.516;23.358;2024-02-14T08:32:07;88318.38;;;5.45;66.98
8047;BME280;74083;42.516;23.358;2024-02-14T08:34:53;88321.69;;;5.46;66.70
8047;BME280;74083;42.516;23.358;2024-02-14T08:37:38;88320.88;;;5.45;66.78
8047;BME280;74083;42.516;23.358;2024-02-14T08:40:24;88329.38;;;5.43;66.89
8047;BME280;74083;42.516;23.358;2024-02-14T08:43:10;88329.25;;;5.44;66.97
8047;BME280;74083;42.516;23.358;2024-02-14T08:45:57;88340.25;;;5.42;67.05
8047;BME280;74083;42.516;23.358;2024-02-14T08:48:43;88342.63;;;5.43;67.01
8047;BME280;74083;42.516;23.358;2024-02-14T08:51:31;88346.75;;;5.44;66.70
8047;BME280;74083;42.516;23.358;2024-02-14T08:54:16;88345.13;;;5.43;66.82
8047;BME280;74083;42.516;23.358;2024-02-14T08:57:02;88352.63;;;5.43;66.92
8047;BME280;74083;42.516;23.358;2024-02-14T08:59:49;88355.22;;;5.42;66.89
8047;BME280;74083;42.516;23.358;2024-02-14T09:02:36;88353.53;;;5.42;66.78
8047;BME280;74083;42.516;23.358;2024-02-14T09:05:22;88365.22;;;5.42;66.96
8047;BME280;74083;42.516;23.358;2024-02-14T09:08:08;88361.91;;;5.41;66.78
8047;BME280;74083;42.516;23.358;2024-02-14T09:10:53;88361.03;;;5.42;67.23
8047;BME280;74083;42.516;23.358;2024-02-14T09:13:39;88363.59;;;5.41;66.91
8047;BME280;74083;42.516;23.358;2024-02-14T09:16:25;88366.91;;;5.41;66.74
8047;BME280;74083;42.516;23.358;2024-02-14T09:19:13;88372.78;;;5.40;66.94
8047;BME280;74083;42.516;23.358;2024-02-14T09:21:58;88372.00;;;5.40;66.92
8047;BME280;74083;42.516;23.358;2024-02-14T09:24:44;88375.38;;;5.39;66.85
8047;BME280;74083;42.516;23.358;2024-02-14T09:27:29;88378.69;;;5.39;67.19
8047;BME280;74083;42.516;23.358;2024-02-14T09:30:15;88376.19;;;5.39;66.72
8047;BME280;74083;42.516;23.358;2024-02-14T09:33:02;88374.56;;;5.38;66.86
8047;BME280;74083;42.516;23.358;2024-02-14T09:35:50;88377.06;;;5.38;66.85
8047;BME280;74083;42.516;23.358;2024-02-14T09:38:36;88373.69;;;5.39;67.10
8047;BME280;74083;42.516;23.358;2024-02-14T09:41:24;88382.88;;;5.39;67.05
8047;BME280;74083;42.516;23.358;2024-02-14T09:44:11;88387.78;;;5.40;66.93
8047;BME280;74083;42.516;23.358;2024-02-14T09:46:58;88382.16;;;5.37;66.98
8047;BME280;74083;42.516;23.358;2024-02-14T09:49:46;88379.50;;;5.40;67.21
8047;BME280;74083;42.516;23.358;2024-02-14T09:52:33;88385.38;;;5.39;67.03
8047;BME280;74083;42.516;23.358;2024-02-14T09:55:19;88383.75;;;5.38;67.20
8047;BME280;74083;42.516;23.358;2024-02-14T09:58:06;88382.16;;;5.37;67.03
8047;BME280;74083;42.516;23.358;2024-02-14T10:00:52;88382.94;;;5.37;66.99
8047;BME280;74083;42.516;23.358;2024-02-14T10:03:38;88380.53;;;5.36;66.90
8047;BME280;74083;42.516;23.358;2024-02-14T10:06:23;88385.53;;;5.36;67.28
8047;BME280;74083;42.516;23.358;2024-02-14T10:09:10;88383.91;;;5.35;67.21
8047;BME280;74083;42.516;23.358;2024-02-14T10:11:56;88379.03;;;5.33;67.34
8047;BME280;74083;42.516;23.358;2024-02-14T10:14:43;88374.91;;;5.32;67.42
8047;BME280;74083;42.516;23.358;2024-02-14T10:17:29;88371.53;;;5.33;67.01
8047;BME280;74083;42.516;23.358;2024-02-14T10:20:17;88379.03;;;5.33;66.77
8047;BME280;74083;42.516;23.358;2024-02-14T10:23:03;88382.34;;;5.34;66.96
8047;BME280;74083;42.516;23.358;2024-02-14T10:25:52;88385.88;;;5.30;66.95
8047;BME280;74083;42.516;23.358;2024-02-14T10:28:41;88384.19;;;5.30;67.06
8047;BME280;74083;42.516;23.358;2024-02-14T10:31:27;88384.09;;;5.32;66.99
8047;BME280;74083;42.516;23.358;2024-02-14T10:34:14;88378.38;;;5.30;67.16
8047;BME280;74083;42.516;23.358;2024-02-14T10:37:00;88375.00;;;5.31;67.03
8047;BME280;74083;42.516;23.358;2024-02-14T10:39:47;88379.19;;;5.30;67.40
8047;BME280;74083;42.516;23.358;2024-02-14T10:42:38;88380.06;;;5.29;67.24
8047;BME280;74083;42.516;23.358;2024-02-14T10:45:24;88375.06;;;5.29;67.10
8047;BME280;74083;42.516;23.358;2024-02-14T10:48:11;88382.50;;;5.31;67.11
8047;BME280;74083;42.516;23.358;2024-02-14T10:50:58;88374.19;;;5.30;66.78
8047;BME280;74083;42.516;23.358;2024-02-14T10:53:46;88382.56;;;5.29;66.97
8047;BME280;74083;42.516;23.358;2024-02-14T10:56:34;88380.97;;;5.28;66.95
8047;BME280;74083;42.516;23.358;2024-02-14T10:59:26;88380.06;;;5.29;66.71
8047;BME280;74083;42.516;23.358;2024-02-14T11:02:12;88384.25;;;5.29;66.92
8047;BME280;74083;42.516;23.358;2024-02-14T11:04:59;88379.25;;;5.29;66.87
8047;BME280;74083;42.516;23.358;2024-02-14T11:07:45;88377.56;;;5.29;66.84
8047;BME280;74083;42.516;23.358;2024-02-14T11:10:37;88380.06;;;5.29;67.05
8047;BME280;74083;42.516;23.358;2024-02-14T11:13:25;88384.25;;;5.29;66.95
8047;BME280;74083;42.516;23.358;2024-02-14T11:16:14;88384.25;;;5.29;67.06
8047;BME280;74083;42.516;23.358;2024-02-14T11:19:06;88381.84;;;5.27;66.98
8047;BME280;74083;42.516;23.358;2024-02-14T11:21:53;88371.00;;;5.28;66.95
8047;BME280;74083;42.516;23.358;2024-02-14T11:24:41;88382.66;;;5.28;66.99
8047;BME280;74083;42.516;23.358;2024-02-14T11:27:28;88380.25;;;5.26;67.54
8047;BME280;74083;42.516;23.358;2024-02-14T11:30:15;88379.38;;;5.27;67.17
8047;BME280;74083;42.516;23.358;2024-02-14T11:33:15;88386.84;;;5.27;67.09
8047;BME280;74083;42.516;23.358;2024-02-14T11:36:08;88384.44;;;5.26;67.19
8047;BME280;74083;42.516;23.358;2024-02-14T11:38:55;88380.34;;;5.25;67.02
8047;BME280;74083;42.516;23.358;2024-02-14T11:41:41;88384.59;;;5.23;67.32
8047;BME280;74083;42.516;23.358;2024-02-14T11:44:27;88380.41;;;5.23;67.05
8047;BME280;74083;42.516;23.358;2024-02-14T11:47:13;88377.84;;;5.25;66.83
8047;BME280;74083;42.516;23.358;2024-02-14T11:50:00;88387.03;;;5.24;66.85
8047;BME280;74083;42.516;23.358;2024-02-14T11:52:47;88385.41;;;5.23;66.87
8047;BME280;74083;42.516;23.358;2024-02-14T11:55:34;88378.81;;;5.22;66.97
8047;BME280;74083;42.516;23.358;2024-02-14T11:58:21;88380.41;;;5.23;66.90
8047;BME280;74083;42.516;23.358;2024-02-14T12:01:07;88381.31;;;5.22;66.85
8047;BME280;74083;42.516;23.358;2024-02-14T12:03:53;88373.81;;;5.22;66.96
8047;BME280;74083;42.516;23.358;2024-02-14T12:06:42;88373.81;;;5.22;66.80
8047;BME280;74083;42.516;23.358;2024-02-14T12:09:28;88377.91;;;5.23;66.83
8047;BME280;74083;42.516;23.358;2024-02-14T12:12:15;88378.81;;;5.22;66.88
8047;BME280;74083;42.516;23.358;2024-02-14T12:15:01;88372.19;;;5.21;67.04
8047;BME280;74083;42.516;23.358;2024-02-14T12:17:47;88381.31;;;5.22;66.87
8047;BME280;74083;42.516;23.358;2024-02-14T12:20:34;88375.50;;;5.22;67.06
8047;BME280;74083;42.516;23.358;2024-02-14T12:23:21;88381.31;;;5.22;66.76
8047;BME280;74083;42.516;23.358;2024-02-14T12:26:10;88378.81;;;5.22;67.17
8047;BME280;74083;42.516;23.358;2024-02-14T12:29:02;88380.50;;;5.22;67.03
8047;BME280;74083;42.516;23.358;2024-02-14T12:31:49;88376.31;;;5.22;67.28
8047;BME280;74083;42.516;23.358;2024-02-14T12:34:35;88374.69;;;5.21;66.95
8047;BME280;74083;42.516;23.358;2024-02-14T12:37:20;88374.00;;;5.19;67.13
8047;BME280;74083;42.516;23.358;2024-02-14T12:40:09;88382.25;;;5.20;66.75
8047;BME280;74083;42.516;23.358;2024-02-14T12:42:55;88375.56;;;5.20;66.80
8047;BME280;74083;42.516;23.358;2024-02-14T12:45:41;88383.97;;;5.19;66.75
8047;BME280;74083;42.516;23.358;2024-02-14T12:48:28;88384.75;;;5.20;66.90
8047;BME280;74083;42.516;23.358;2024-02-14T12:51:14;88383.97;;;5.19;66.86
8047;BME280;74083;42.516;23.358;2024-02-14T12:54:00;88386.47;;;5.19;66.84
8047;BME280;74083;42.516;23.358;2024-02-14T12:56:46;88389.84;;;5.18;66.83
8047;BME280;74083;42.516;23.358;2024-02-14T12:59:32;88393.22;;;5.17;66.86
8047;BME280;74083;42.516;23.358;2024-02-14T13:02:18;88391.63;;;5.16;66.82
8047;BME280;74083;42.516;23.358;2024-02-14T13:05:05;88394.13;;;5.16;67.07
8047;BME280;74083;42.516;23.358;2024-02-14T13:07:51;88403.97;;;5.19;66.83
8047;BME280;74083;42.516;23.358;2024-02-14T13:10:37;88398.38;;;5.14;66.94
8047;BME280;74083;42.516;23.358;2024-02-14T13:13:24;88410.72;;;5.17;67.22
8047;BME280;74083;42.516;23.358;2024-02-14T13:16:10;88404.13;;;5.16;67.21
8047;BME280;74083;42.516;23.358;2024-02-14T13:18:56;88407.50;;;5.15;67.07
8047;BME280;74083;42.516;23.358;2024-02-14T13:21:41;88409.28;;;5.13;66.90
8047;BME280;74083;42.516;23.358;2024-02-14T13:24:29;88405.09;;;5.14;66.83
8047;BME280;74083;42.516;23.358;2024-02-14T13:27:15;88401.69;;;5.15;66.61
8047;BME280;74083;42.516;23.358;2024-02-14T13:30:02;88413.38;;;5.14;67.08
8047;BME280;74083;42.516;23.358;2024-02-14T13:32:48;88402.66;;;5.12;66.96
8047;BME280;74083;42.516;23.358;2024-02-14T13:35:33;88409.28;;;5.13;66.72
8047;BME280;74083;42.516;23.358;2024-02-14T13:38:22;88410.88;;;5.14;67.10
8047;BME280;74083;42.516;23.358;2024-02-14T13:41:08;88411.03;;;5.11;67.24
8047;BME280;74083;42.516;23.358;2024-02-14T13:43:53;88418.47;;;5.13;67.32
8047;BME280;74083;42.516;23.358;2024-02-14T13:46:43;88410.25;;;5.11;66.88
8047;BME280;74083;42.516;23.358;2024-02-14T13:49:29;88406.03;;;5.11;66.86
8047;BME280;74083;42.516;23.358;2024-02-14T13:52:15;88409.28;;;5.13;66.82
8047;BME280;74083;42.516;23.358;2024-02-14T13:55:02;88407.66;;;5.12;67.01
8047;BME280;74083;42.516;23.358;2024-02-14T13:57:49;88419.28;;;5.13;67.01
8047;BME280;74083;42.516;23.358;2024-02-14T14:00:34;88415.97;;;5.13;66.94
8047;BME280;74083;42.516;23.358;2024-02-14T14:03:21;88413.47;;;5.13;67.04
8047;BME280;74083;42.516;23.358;2024-02-14T14:06:07;88418.53;;;5.11;67.08
8047;BME280;74083;42.516;23.358;2024-02-14T14:08:53;88417.66;;;5.12;66.93
8047;BME280;74083;42.516;23.358;2024-02-14T14:11:39;88421.03;;;5.11;67.37
8047;BME280;74083;42.516;23.358;2024-02-14T14:14:25;88421.03;;;5.11;67.24
8047;BME280;74083;42.516;23.358;2024-02-14T14:17:13;88421.94;;;5.10;66.97
8047;BME280;74083;42.516;23.358;2024-02-14T14:20:00;88426.94;;;5.10;66.82
8047;BME280;74083;42.516;23.358;2024-02-14T14:22:45;88430.22;;;5.11;67.39
8047;BME280;74083;42.516;23.358;2024-02-14T14:25:31;88430.41;;;5.07;67.30
8047;BME280;74083;42.516;23.358;2024-02-14T14:28:16;88432.09;;;5.07;67.07
8047;BME280;74083;42.516;23.358;2024-02-14T14:31:04;88430.31;;;5.09;67.17
8047;BME280;74083;42.516;23.358;2024-02-14T14:33:50;88430.31;;;5.09;67.12
8047;BME280;74083;42.516;23.358;2024-02-14T14:36:37;88433.78;;;5.06;66.78
8047;BME280;74083;42.516;23.358;2024-02-14T14:39:25;88434.59;;;5.07;66.86
8047;BME280;74083;42.516;23.358;2024-02-14T14:42:11;88438.66;;;5.08;67.10
8047;BME280;74083;42.516;23.358;2024-02-14T14:44:56;88444.56;;;5.07;66.99
8047;BME280;74083;42.516;23.358;2024-02-14T14:47:43;88443.75;;;5.06;67.17
8047;BME280;74083;42.516;23.358;2024-02-14T14:50:28;88449.56;;;5.07;67.03
8047;BME280;74083;42.516;23.358;2024-02-14T14:53:17;88449.63;;;5.05;67.04